ETSB

Buchel Airport

Germany
METAR ETSB 190620Z AUTO 10006KT 5000 // ////// M05/M06 Q1015 ///
Observed Flight Rules
Jan-19 @ 06:20 UTC (11 minutes ago)
Wind Visibility
100° at 6 knots 5,005 meters
Temperatures Readings
Current -5°C / 23°F
Dewpoint -6°C / 21°F
Humidity 93%
Altimeter 29.97" Hg
Pressure 1014.92 hPa
Elevation 486
METAR ETSB 190620Z AUTO 10006KT 5000 // ////// M05/M06 Q1015 ///
Observed Flight Rules
Jan-19 @ 06:20 UTC
(11 minutes ago)
Wind Visibility
100° at 6 knots 5,005 meters
Temperature Dewpoint
-5°C / 23°F -6°C / 21°F
Humidity Altimeter Pressure
93% 29.97" Hg 1014.92 hPa